createdAt,value
2022-08-07T00:00:26.151Z,14.30
2022-08-07T00:02:53.780Z,14.30
2022-08-07T00:05:23.775Z,14.30
2022-08-07T00:07:59.940Z,14.30
2022-08-07T00:10:30.711Z,14.30
2022-08-07T00:13:02.292Z,14.30
2022-08-07T00:15:46.373Z,14.20
2022-08-07T00:18:24.808Z,14.30
2022-08-07T00:21:01.686Z,14.30
2022-08-07T00:23:34.192Z,14.20
2022-08-07T00:26:13.393Z,14.20
2022-08-07T00:28:56.465Z,14.20
2022-08-07T00:31:37.259Z,14.10
2022-08-07T00:34:08.531Z,14.10
2022-08-07T00:36:35.691Z,14.10
2022-08-07T00:39:05.800Z,14.10
2022-08-07T00:41:37.252Z,14.10
2022-08-07T00:44:12.342Z,14.10
2022-08-07T00:46:42.152Z,14.10
2022-08-07T00:49:10.876Z,14.00
2022-08-07T00:51:56.535Z,14.00
2022-08-07T00:54:26.168Z,14.00
2022-08-07T00:56:53.297Z,13.90
2022-08-07T00:59:32.383Z,13.90
2022-08-07T01:02:03.946Z,13.90
2022-08-07T01:04:45.453Z,13.80
2022-08-07T01:07:13.019Z,13.80
2022-08-07T01:10:06.897Z,13.80
2022-08-07T01:12:30.769Z,13.70
2022-08-07T01:15:01.010Z,13.70
2022-08-07T01:17:30.663Z,13.70
2022-08-07T01:20:04.996Z,13.70
2022-08-07T01:22:33.880Z,13.70
2022-08-07T01:25:02.404Z,13.70
2022-08-07T01:27:51.376Z,13.70
2022-08-07T01:30:19.123Z,13.70
2022-08-07T01:32:47.286Z,13.70
2022-08-07T01:35:17.177Z,13.60
2022-08-07T01:37:47.263Z,13.60
2022-08-07T01:40:21.383Z,13.60
2022-08-07T01:42:58.702Z,13.60
2022-08-07T01:45:37.338Z,13.60
2022-08-07T01:48:20.175Z,13.60
2022-08-07T01:50:58.963Z,13.60
2022-08-07T01:54:12.031Z,13.60
2022-08-07T01:56:34.180Z,13.50
2022-08-07T01:59:15.745Z,13.50
2022-08-07T02:02:00.169Z,13.50
2022-08-07T02:04:39.042Z,13.40
2022-08-07T02:07:22.309Z,13.50
2022-08-07T02:10:04.879Z,13.50
2022-08-07T02:12:39.449Z,13.40
2022-08-07T02:15:11.440Z,13.40
2022-08-07T02:17:49.611Z,13.40
2022-08-07T02:20:23.957Z,13.40
2022-08-07T02:23:00.128Z,13.40
2022-08-07T02:26:10.142Z,13.40
2022-08-07T02:28:25.409Z,13.40
2022-08-07T02:30:58.083Z,13.30
2022-08-07T02:33:42.084Z,13.30
2022-08-07T02:36:28.340Z,13.30
2022-08-07T02:39:16.331Z,13.30
2022-08-07T02:41:47.474Z,13.20
2022-08-07T02:44:20.757Z,13.20
2022-08-07T02:46:52.648Z,13.20
2022-08-07T02:49:56.157Z,13.20
2022-08-07T02:52:14.139Z,13.20
2022-08-07T02:54:43.842Z,13.20
2022-08-07T02:57:14.148Z,13.10
2022-08-07T03:00:00.816Z,13.10
2022-08-07T03:02:29.512Z,13.10
2022-08-07T03:04:58.568Z,13.00
2022-08-07T03:07:43.222Z,13.00
2022-08-07T03:10:17.985Z,13.00
2022-08-07T03:12:52.896Z,13.00
2022-08-07T03:15:30.366Z,13.00
2022-08-07T03:18:09.189Z,13.00
2022-08-07T03:20:37.152Z,12.90
2022-08-07T03:23:04.639Z,12.90
2022-08-07T03:25:46.777Z,13.10
2022-08-07T03:28:38.402Z,12.90
2022-08-07T03:31:24.452Z,13.10
2022-08-07T03:33:58.298Z,12.90
2022-08-07T03:36:30.197Z,12.90
2022-08-07T03:39:05.298Z,12.90
2022-08-07T03:41:42.320Z,12.80
2022-08-07T03:44:16.131Z,12.80
2022-08-07T03:47:13.656Z,12.80
2022-08-07T03:49:37.500Z,12.80
2022-08-07T03:52:07.693Z,12.80
2022-08-07T03:55:17.790Z,12.80
2022-08-07T03:58:32.409Z,12.80
2022-08-07T04:00:46.486Z,12.80
2022-08-07T04:03:21.348Z,12.80
2022-08-07T04:05:51.727Z,12.80
2022-08-07T04:08:26.785Z,12.80
2022-08-07T04:12:15.408Z,12.80
2022-08-07T04:14:10.443Z,12.80
2022-08-07T04:16:33.576Z,12.90
2022-08-07T04:19:14.834Z,12.90
2022-08-07T04:21:59.288Z,12.90
2022-08-07T04:24:39.151Z,12.90
2022-08-07T04:27:15.195Z,12.90
2022-08-07T04:30:01.165Z,12.90
2022-08-07T04:32:38.532Z,12.90
2022-08-07T04:35:12.777Z,12.90
2022-08-07T04:38:01.379Z,12.90
2022-08-07T04:40:29.979Z,12.90
2022-08-07T04:43:01.856Z,12.90
2022-08-07T04:46:03.139Z,12.90
2022-08-07T04:48:44.954Z,12.90
2022-08-07T04:51:36.276Z,12.90
2022-08-07T04:54:15.686Z,12.90
2022-08-07T04:58:12.485Z,13.00
2022-08-07T05:00:18.892Z,13.00
2022-08-07T05:03:38.801Z,13.00
2022-08-07T05:06:19.338Z,13.10
2022-08-07T05:09:01.494Z,13.10
2022-08-07T05:11:57.216Z,13.10
2022-08-07T05:14:56.079Z,13.20
2022-08-07T05:17:52.529Z,13.20
2022-08-07T05:20:21.574Z,13.30
2022-08-07T05:22:52.981Z,13.30
2022-08-07T05:25:25.744Z,13.40
2022-08-07T05:28:21.242Z,13.40
2022-08-07T05:30:54.478Z,13.50
2022-08-07T05:33:23.482Z,13.50
2022-08-07T05:35:52.992Z,13.60
2022-08-07T05:39:00.519Z,13.60
2022-08-07T05:41:16.606Z,13.70
2022-08-07T05:44:12.518Z,13.80
2022-08-07T05:46:38.385Z,13.80
2022-08-07T05:49:12.184Z,13.90
2022-08-07T05:51:46.673Z,14.00
2022-08-07T05:54:31.513Z,14.00
2022-08-07T05:57:09.332Z,14.10
2022-08-07T05:59:57.881Z,14.20
2022-08-07T06:02:31.249Z,14.20
2022-08-07T06:05:15.417Z,14.30
2022-08-07T06:08:13.070Z,14.40
2022-08-07T06:10:33.268Z,14.50
2022-08-07T06:13:03.408Z,14.60
2022-08-07T06:15:39.074Z,14.60
2022-08-07T06:18:13.999Z,14.70
2022-08-07T06:20:51.051Z,14.80
2022-08-07T06:24:36.878Z,14.90
2022-08-07T06:26:21.558Z,15.00
2022-08-07T06:28:58.988Z,15.10
2022-08-07T06:31:46.995Z,15.20
2022-08-07T06:34:16.442Z,15.30
2022-08-07T06:36:52.230Z,15.40
2022-08-07T06:40:17.140Z,15.50
2022-08-07T06:42:37.098Z,15.60
2022-08-07T06:45:25.483Z,15.80
2022-08-07T06:47:59.290Z,15.90
2022-08-07T06:50:36.448Z,16.00
2022-08-07T06:53:49.195Z,16.10
2022-08-07T06:56:01.451Z,16.20
2022-08-07T06:58:35.633Z,16.40
2022-08-07T07:01:10.528Z,16.50
2022-08-07T07:03:50.009Z,16.70
2022-08-07T07:06:26.553Z,16.80
2022-08-07T07:08:54.962Z,16.90
2022-08-07T07:12:07.848Z,17.00
2022-08-07T07:14:14.015Z,17.20
2022-08-07T07:16:49.993Z,17.30
2022-08-07T07:19:56.157Z,17.40
2022-08-07T07:22:35.722Z,17.60
2022-08-07T07:25:13.903Z,17.70
2022-08-07T07:28:07.445Z,17.80
2022-08-07T07:30:39.728Z,18.00
2022-08-07T07:33:11.513Z,18.10
2022-08-07T07:35:54.752Z,18.20
2022-08-07T07:38:28.887Z,18.40
2022-08-07T07:41:02.448Z,18.50
2022-08-07T07:43:47.907Z,18.70
2022-08-07T07:46:53.362Z,18.80
2022-08-07T07:50:35.567Z,19.00
2022-08-07T07:52:00.248Z,19.10
2022-08-07T07:54:29.705Z,19.30
2022-08-07T07:56:58.695Z,19.40
2022-08-07T07:59:52.184Z,19.50
2022-08-07T08:02:22.551Z,19.60
2022-08-07T08:05:14.318Z,19.70
2022-08-07T08:07:59.677Z,19.80
2022-08-07T08:10:37.786Z,19.90
2022-08-07T08:13:10.672Z,20.10
2022-08-07T08:15:58.585Z,20.20
2022-08-07T08:18:28.348Z,20.50
2022-08-07T08:20:58.516Z,20.60
2022-08-07T08:23:46.980Z,20.80
2022-08-07T08:26:34.941Z,21.00
2022-08-07T08:29:04.268Z,21.10
2022-08-07T08:32:17.030Z,21.30
2022-08-07T08:34:33.840Z,21.50
2022-08-07T08:37:09.842Z,21.70
2022-08-07T08:39:55.120Z,21.90
2022-08-07T08:42:45.184Z,22.10
2022-08-07T08:45:20.963Z,22.30
2022-08-07T08:48:05.155Z,22.50
2022-08-07T08:51:03.379Z,22.60
2022-08-07T08:53:56.604Z,22.70
2022-08-07T08:56:33.102Z,22.90
2022-08-07T08:59:30.484Z,23.10
2022-08-07T09:02:13.512Z,23.30
2022-08-07T09:04:54.848Z,23.50
2022-08-07T09:07:58.098Z,23.60
2022-08-07T09:10:37.502Z,23.80
2022-08-07T09:13:37.029Z,24.10
2022-08-07T09:16:29.951Z,24.30
2022-08-07T09:19:53.542Z,24.50
2022-08-07T09:24:54.824Z,24.70
2022-08-07T09:26:17.219Z,25.00
2022-08-07T09:30:01.463Z,25.20
2022-08-07T09:32:26.338Z,25.30
2022-08-07T09:35:04.839Z,25.40
2022-08-07T09:38:30.949Z,25.60
2022-08-07T09:41:05.133Z,25.90
2022-08-07T09:44:05.829Z,25.90
2022-08-07T09:47:51.295Z,26.00
2022-08-07T09:50:01.160Z,26.10
2022-08-07T09:52:55.357Z,26.20
2022-08-07T09:56:02.712Z,26.40
2022-08-07T09:58:35.763Z,26.50
2022-08-07T10:01:08.448Z,26.50
2022-08-07T10:04:16.013Z,26.40
2022-08-07T10:07:25.953Z,26.60
2022-08-07T10:10:02.500Z,26.80
2022-08-07T10:12:41.899Z,26.90
2022-08-07T10:16:24.895Z,27.10
2022-08-07T10:19:03.819Z,27.30
2022-08-07T10:22:15.421Z,27.50
2022-08-07T10:24:49.220Z,27.60
2022-08-07T10:27:46.515Z,27.50
2022-08-07T10:30:28.880Z,27.60
2022-08-07T10:33:23.678Z,27.70
2022-08-07T10:36:39.505Z,27.70
2022-08-07T10:39:41.305Z,27.50
2022-08-07T10:42:31.400Z,27.30
2022-08-07T10:45:44.339Z,27.10
2022-08-07T10:48:24.550Z,27.30
2022-08-07T10:51:16.309Z,27.50
2022-08-07T10:54:33.179Z,27.50
2022-08-07T10:57:34.546Z,27.70
2022-08-07T11:00:42.825Z,27.90
2022-08-07T11:03:10.877Z,28.10
2022-08-07T11:05:58.216Z,28.10
2022-08-07T11:08:58.736Z,28.00
2022-08-07T11:11:29.743Z,28.20
2022-08-07T11:14:45.144Z,28.30
2022-08-07T11:17:45.075Z,28.30
2022-08-07T11:20:24.669Z,28.10
2022-08-07T11:23:09.271Z,28.10
2022-08-07T11:25:50.272Z,28.00
2022-08-07T11:28:20.053Z,28.10
2022-08-07T11:31:02.820Z,28.30
2022-08-07T11:34:10.298Z,28.40
2022-08-07T11:36:40.984Z,28.50
2022-08-07T11:40:00.415Z,28.70
2022-08-07T11:43:15.555Z,29.00
2022-08-07T11:46:21.325Z,29.30
2022-08-07T11:49:50.152Z,29.40
2022-08-07T11:51:49.118Z,29.50
2022-08-07T11:54:31.803Z,29.50
2022-08-07T11:57:57.920Z,29.60
2022-08-07T12:01:00.136Z,29.80
2022-08-07T12:03:44.618Z,29.90
2022-08-07T12:06:36.944Z,30.20
2022-08-07T12:09:16.793Z,30.20
2022-08-07T12:12:09.562Z,30.30
2022-08-07T12:14:55.450Z,30.30
2022-08-07T12:17:38.826Z,30.40
2022-08-07T12:20:18.549Z,30.40
2022-08-07T12:24:06.001Z,30.40
2022-08-07T12:26:49.076Z,30.40
2022-08-07T12:29:54.197Z,30.10
2022-08-07T12:32:59.182Z,29.90
2022-08-07T12:35:29.348Z,30.10
2022-08-07T12:38:11.218Z,30.10
2022-08-07T12:40:47.780Z,29.90
2022-08-07T12:44:01.829Z,29.90
2022-08-07T12:46:26.185Z,30.00
2022-08-07T12:49:25.718Z,30.10
2022-08-07T12:52:29.267Z,30.20
2022-08-07T12:55:22.420Z,30.40
2022-08-07T12:58:12.942Z,30.30
2022-08-07T13:01:04.686Z,30.10
2022-08-07T13:04:05.239Z,30.00
2022-08-07T13:07:01.765Z,30.00
2022-08-07T13:10:22.099Z,29.90
2022-08-07T13:13:10.890Z,29.70
2022-08-07T13:15:59.909Z,29.70
2022-08-07T13:18:50.846Z,29.90
2022-08-07T13:21:51.112Z,29.90
2022-08-07T13:24:43.966Z,29.90
2022-08-07T13:28:10.679Z,30.00
2022-08-07T13:30:40.319Z,29.90
2022-08-07T13:34:31.724Z,29.80
2022-08-07T13:36:17.344Z,29.80
2022-08-07T13:38:54.185Z,30.00
2022-08-07T13:41:47.314Z,30.20
2022-08-07T13:44:26.184Z,30.30
2022-08-07T13:46:59.614Z,30.30
2022-08-07T13:50:44.025Z,30.10
2022-08-07T13:52:27.160Z,29.70
2022-08-07T13:55:10.825Z,29.30
2022-08-07T13:57:59.173Z,29.10
2022-08-07T14:00:39.495Z,29.10
2022-08-07T14:03:29.027Z,29.30
2022-08-07T14:05:58.581Z,29.40
2022-08-07T14:08:26.421Z,29.60
2022-08-07T14:11:01.960Z,29.70
2022-08-07T14:13:45.133Z,29.70
2022-08-07T14:16:16.896Z,29.60
2022-08-07T14:18:57.218Z,29.60
2022-08-07T14:22:01.860Z,29.80
2022-08-07T14:24:41.393Z,29.90
2022-08-07T14:28:09.970Z,29.60
2022-08-07T14:30:11.325Z,29.50
2022-08-07T14:32:47.304Z,29.40
2022-08-07T14:35:44.499Z,29.40
2022-08-07T14:38:26.645Z,29.60
2022-08-07T14:41:05.094Z,29.70
2022-08-07T14:43:57.211Z,29.80
2022-08-07T14:46:26.380Z,29.90
2022-08-07T14:49:55.738Z,29.90
2022-08-07T14:52:03.929Z,30.00
2022-08-07T14:54:42.244Z,29.90
2022-08-07T15:00:06.587Z,29.80
2022-08-07T15:02:37.378Z,29.60
2022-08-07T15:05:19.798Z,29.30
2022-08-07T15:07:51.924Z,29.10
2022-08-07T15:10:26.360Z,29.10
2022-08-07T15:12:59.774Z,29.00
2022-08-07T15:15:38.894Z,28.90
2022-08-07T15:18:14.504Z,28.80
2022-08-07T15:21:08.381Z,28.60
2022-08-07T15:26:59.241Z,28.70
2022-08-07T15:30:08.904Z,28.70
2022-08-07T15:32:38.897Z,28.50
2022-08-07T15:35:14.567Z,28.40
2022-08-07T15:38:17.365Z,28.10
2022-08-07T15:40:38.941Z,27.90
2022-08-07T15:46:31.674Z,27.70
2022-08-07T15:52:01.621Z,27.10
2022-08-07T15:54:39.516Z,27.00
2022-08-07T15:57:27.962Z,27.00
2022-08-07T16:00:00.025Z,26.80
2022-08-07T16:02:39.856Z,26.70
2022-08-07T16:05:19.764Z,26.50
2022-08-07T16:08:31.291Z,26.40
2022-08-07T16:10:47.302Z,26.40
2022-08-07T16:13:39.516Z,26.40
2022-08-07T16:16:48.468Z,26.30
2022-08-07T16:19:59.782Z,26.20
2022-08-07T16:22:55.014Z,26.20
2022-08-07T16:25:54.323Z,26.00
2022-08-07T16:30:07.033Z,25.90
2022-08-07T16:31:50.934Z,25.80
2022-08-07T16:34:31.691Z,25.80
2022-08-07T16:38:03.602Z,25.80
2022-08-07T16:40:28.189Z,25.70
2022-08-07T16:43:14.727Z,25.60
2022-08-07T16:47:06.008Z,25.60
2022-08-07T16:50:27.192Z,25.40
2022-08-07T16:52:55.839Z,25.20
2022-08-07T16:55:47.418Z,25.00
2022-08-07T16:58:54.358Z,24.90
2022-08-07T17:01:34.554Z,24.80
2022-08-07T17:04:26.033Z,24.60
2022-08-07T17:07:05.918Z,24.50
2022-08-07T17:10:06.225Z,24.40
2022-08-07T17:12:47.768Z,24.30
2022-08-07T17:15:43.803Z,24.20
2022-08-07T17:18:18.568Z,24.10
2022-08-07T17:20:46.650Z,24.00
2022-08-07T17:23:22.858Z,23.90
2022-08-07T17:26:02.221Z,23.80
2022-08-07T17:28:52.486Z,23.80
2022-08-07T17:31:25.661Z,23.70
2022-08-07T17:34:15.093Z,23.70
2022-08-07T17:36:59.968Z,23.70
2022-08-07T17:40:07.914Z,23.60
2022-08-07T17:42:35.901Z,23.50
2022-08-07T17:45:34.939Z,23.40
2022-08-07T17:48:10.357Z,23.40
2022-08-07T17:51:07.591Z,23.30
2022-08-07T17:54:11.538Z,23.30
2022-08-07T17:56:49.927Z,23.10
2022-08-07T17:59:35.774Z,23.20
2022-08-07T18:02:23.439Z,23.10
2022-08-07T18:06:01.303Z,23.00
2022-08-07T18:08:36.505Z,23.00
2022-08-07T18:12:08.194Z,22.90
2022-08-07T18:14:46.297Z,22.80
2022-08-07T18:18:47.119Z,22.50
2022-08-07T18:21:08.598Z,22.40
2022-08-07T18:23:57.274Z,22.20
2022-08-07T18:26:54.768Z,22.10
2022-08-07T18:30:07.772Z,22.00
2022-08-07T18:36:53.994Z,21.70
2022-08-07T18:40:07.321Z,21.60
2022-08-07T18:43:14.958Z,21.50
2022-08-07T18:46:21.537Z,21.40
2022-08-07T18:50:32.561Z,21.30
2022-08-07T18:52:37.533Z,21.20
2022-08-07T18:55:42.683Z,21.10
2022-08-07T18:58:51.322Z,21.00
2022-08-07T19:02:19.817Z,20.90
2022-08-07T19:05:17.635Z,20.90
2022-08-07T19:07:58.725Z,20.80
2022-08-07T19:14:51.891Z,20.70
2022-08-07T19:17:54.339Z,20.50
2022-08-07T19:21:08.899Z,20.40
2022-08-07T19:24:05.288Z,20.20
2022-08-07T19:28:28.286Z,20.20
2022-08-07T19:31:01.228Z,20.10
2022-08-07T19:32:52.776Z,20.00
2022-08-07T19:35:33.076Z,20.00
2022-08-07T19:38:15.123Z,19.90
2022-08-07T19:41:45.009Z,19.90
2022-08-07T19:44:33.946Z,19.90
2022-08-07T19:47:36.494Z,19.80
2022-08-07T19:50:41.562Z,19.70
2022-08-07T19:53:00.886Z,19.70
2022-08-07T19:55:56.875Z,19.70
2022-08-07T19:58:28.483Z,19.60
2022-08-07T20:01:21.357Z,19.60
2022-08-07T20:03:52.163Z,19.60
2022-08-07T20:06:30.691Z,19.50
2022-08-07T20:09:02.940Z,19.50
2022-08-07T20:12:01.382Z,19.40
2022-08-07T20:14:31.774Z,19.40
2022-08-07T20:17:05.931Z,19.30
2022-08-07T20:19:48.117Z,19.30
2022-08-07T20:22:33.961Z,19.20
2022-08-07T20:25:12.767Z,19.20
2022-08-07T20:27:58.093Z,19.10
2022-08-07T20:30:34.558Z,19.10
2022-08-07T20:33:05.540Z,19.10
2022-08-07T20:35:54.668Z,19.00
2022-08-07T20:38:29.802Z,19.00
2022-08-07T20:41:03.899Z,19.00
2022-08-07T20:43:35.173Z,18.90
2022-08-07T20:46:28.240Z,18.90
2022-08-07T20:49:58.286Z,18.80
2022-08-07T20:51:49.179Z,18.80
2022-08-07T20:54:29.590Z,18.80
2022-08-07T20:57:10.409Z,18.70
2022-08-07T21:00:06.969Z,18.70
2022-08-07T21:02:54.137Z,18.60
2022-08-07T21:05:42.775Z,18.60
2022-08-07T21:08:36.414Z,18.50
2022-08-07T21:11:05.510Z,18.40
2022-08-07T21:13:43.619Z,18.30
2022-08-07T21:16:37.754Z,18.30
2022-08-07T21:19:32.192Z,18.30
2022-08-07T21:22:16.682Z,18.20
2022-08-07T21:25:12.387Z,18.20
2022-08-07T21:27:53.536Z,18.10
2022-08-07T21:30:23.724Z,18.10
2022-08-07T21:33:09.852Z,18.00
2022-08-07T21:36:05.825Z,18.00
2022-08-07T21:42:51.279Z,17.80
2022-08-07T21:46:10.079Z,17.80
2022-08-07T21:48:42.539Z,17.70
2022-08-07T21:51:32.012Z,17.60
2022-08-07T21:54:31.732Z,17.60
2022-08-07T21:57:08.044Z,17.60
2022-08-07T22:00:05.316Z,17.60
2022-08-07T22:02:47.780Z,17.50
2022-08-07T22:05:44.009Z,17.50
2022-08-07T22:08:10.264Z,17.50
2022-08-07T22:10:38.649Z,17.50
2022-08-07T22:13:14.429Z,17.40
2022-08-07T22:16:42.302Z,17.40
2022-08-07T22:19:02.073Z,17.40
2022-08-07T22:22:04.344Z,17.30
2022-08-07T22:24:54.169Z,17.30
2022-08-07T22:28:07.215Z,17.20
2022-08-07T22:30:18.212Z,17.20
2022-08-07T22:33:09.295Z,17.10
2022-08-07T22:35:58.080Z,17.00
2022-08-07T22:38:48.888Z,17.00
2022-08-07T22:42:03.485Z,17.00
2022-08-07T22:44:24.889Z,16.90
2022-08-07T22:47:18.969Z,16.90
2022-08-07T22:50:20.893Z,16.90
2022-08-07T22:53:16.965Z,16.80
2022-08-07T22:56:00.952Z,16.70
2022-08-07T22:58:50.539Z,16.80
2022-08-07T23:01:49.742Z,16.70
2022-08-07T23:04:45.208Z,16.70
2022-08-07T23:07:48.292Z,16.70
2022-08-07T23:11:12.988Z,16.60
2022-08-07T23:14:17.257Z,16.60
2022-08-07T23:17:19.826Z,16.60
2022-08-07T23:20:40.281Z,16.50
2022-08-07T23:24:05.233Z,16.50
2022-08-07T23:26:30.702Z,16.40
2022-08-07T23:29:17.184Z,16.30
2022-08-07T23:34:23.185Z,16.30
2022-08-07T23:35:22.784Z,16.30
2022-08-07T23:38:03.993Z,16.30
2022-08-07T23:40:49.205Z,16.30
2022-08-07T23:43:52.686Z,16.20
2022-08-07T23:46:50.779Z,16.20
2022-08-07T23:49:50.170Z,16.20
2022-08-07T23:52:59.451Z,16.20
2022-08-07T23:55:52.464Z,16.20
2022-08-07T23:58:24.675Z,16.20
